EZY59 EGFF-EGFF
Flight info
| Callsign | EZY59 |
|---|---|
| Flight time | 0h 19m |
| Altitude | 2000 |
| Route | BCN DCT EGBB DCT ICTAM |
| Aircraft | A320/M-SDE3FGHIRWY/LB1 |
Departure
| Time | 2026-05-06 15:29 |
|---|---|
| Airport | Cardiff International Airport (EGFF) |
Arrival
| Time | 2026-05-06 15:48 |
|---|---|
| Airport | Cardiff International Airport (EGFF) |
| Time | Latitude | Longitude | Altitude | Speed | Heading |
|---|---|---|---|---|---|
| 2026-05-06 15:12 | 51.39695 | -3.33592 | 229 ft | 0 kts | 250° |
| 2026-05-06 15:25 | 51.39694 | -3.33594 | 229 ft | 1 kts | 250° |
| 2026-05-06 15:26 | 51.39678 | -3.33666 | 229 ft | 10 kts | 250° |
| 2026-05-06 15:26 | 51.39672 | -3.33781 | 229 ft | 11 kts | 287° |
| 2026-05-06 15:26 | 51.39708 | -3.33896 | 229 ft | 13 kts | 297° |
| 2026-05-06 15:26 | 51.39767 | -3.34084 | 229 ft | 22 kts | 297° |
| 2026-05-06 15:27 | 51.39838 | -3.34305 | 229 ft | 23 kts | 297° |
| 2026-05-06 15:27 | 51.39911 | -3.34540 | 229 ft | 25 kts | 296° |
| 2026-05-06 15:27 | 51.39994 | -3.34802 | 229 ft | 28 kts | 297° |
| 2026-05-06 15:27 | 51.40084 | -3.35088 | 231 ft | 27 kts | 296° |
| 2026-05-06 15:28 | 51.40152 | -3.35330 | 229 ft | 24 kts | 277° |
| 2026-05-06 15:28 | 51.40097 | -3.35501 | 225 ft | 18 kts | 211° |
| 2026-05-06 15:28 | 51.40027 | -3.35486 | 220 ft | 11 kts | 124° |
| 2026-05-06 15:28 | 51.39970 | -3.35307 | 220 ft | 43 kts | 117° |
| 2026-05-06 15:29 | 51.39656 | -3.34299 | 287 ft | 147 kts | 117° |
| 2026-05-06 15:29 | 51.39168 | -3.32704 | 1259 ft | 171 kts | 115° |
| 2026-05-06 15:29 | 51.38600 | -3.30894 | 2028 ft | 199 kts | 116° |
| 2026-05-06 15:29 | 51.37955 | -3.28883 | 1998 ft | 196 kts | 116° |
| 2026-05-06 15:30 | 51.37359 | -3.27036 | 1992 ft | 186 kts | 116° |
| 2026-05-06 15:30 | 51.36775 | -3.25224 | 1991 ft | 181 kts | 116° |
| 2026-05-06 15:30 | 51.35984 | -3.23688 | 2025 ft | 182 kts | 144° |
| 2026-05-06 15:30 | 51.34791 | -3.23024 | 2047 ft | 186 kts | 174° |
| 2026-05-06 15:31 | 51.33522 | -3.23420 | 2058 ft | 189 kts | 204° |
| 2026-05-06 15:31 | 51.32524 | -3.24787 | 2068 ft | 192 kts | 235° |
| 2026-05-06 15:31 | 51.32068 | -3.26772 | 2083 ft | 192 kts | 266° |
| 2026-05-06 15:32 | 51.32753 | -3.30820 | 2086 ft | 190 kts | 296° |
| 2026-05-06 15:32 | 51.33309 | -3.32737 | 2099 ft | 189 kts | 296° |
| 2026-05-06 15:32 | 51.33868 | -3.34614 | 2109 ft | 190 kts | 297° |
| 2026-05-06 15:32 | 51.34450 | -3.36515 | 2095 ft | 191 kts | 298° |
| 2026-05-06 15:33 | 51.35047 | -3.38406 | 2101 ft | 190 kts | 298° |
| 2026-05-06 15:33 | 51.35661 | -3.40283 | 2111 ft | 188 kts | 300° |
| 2026-05-06 15:33 | 51.36270 | -3.42081 | 2113 ft | 181 kts | 300° |
| 2026-05-06 15:33 | 51.36882 | -3.43826 | 2099 ft | 179 kts | 301° |
| 2026-05-06 15:34 | 51.37458 | -3.45593 | 2112 ft | 179 kts | 298° |
| 2026-05-06 15:34 | 51.38022 | -3.47370 | 2123 ft | 179 kts | 298° |
| 2026-05-06 15:34 | 51.38591 | -3.49111 | 2118 ft | 179 kts | 299° |
| 2026-05-06 15:34 | 51.39277 | -3.50760 | 2135 ft | 178 kts | 315° |
| 2026-05-06 15:35 | 51.40207 | -3.51946 | 2148 ft | 167 kts | 334° |
| 2026-05-06 15:35 | 51.41267 | -3.52534 | 1969 ft | 158 kts | 354° |
| 2026-05-06 15:35 | 51.42343 | -3.52462 | 1788 ft | 154 kts | 16° |
| 2026-05-06 15:35 | 51.43299 | -3.51765 | 1564 ft | 150 kts | 39° |
| 2026-05-06 15:36 | 51.43795 | -3.51013 | 1409 ft | 147 kts | 53° |
| 2026-05-06 15:36 | 51.44239 | -3.49561 | 1283 ft | 143 kts | 77° |
| 2026-05-06 15:36 | 51.44009 | -3.47537 | 1104 ft | 142 kts | 120° |
| 2026-05-06 15:36 | 51.43463 | -3.46262 | 915 ft | 135 kts | 121° |
| 2026-05-06 15:37 | 51.43024 | -3.44935 | 824 ft | 134 kts | 117° |
| 2026-05-06 15:37 | 51.42583 | -3.43618 | 772 ft | 137 kts | 118° |
| 2026-05-06 15:37 | 51.42170 | -3.42255 | 728 ft | 136 kts | 118° |
| 2026-05-06 15:37 | 51.41727 | -3.40892 | 616 ft | 142 kts | 116° |
| 2026-05-06 15:38 | 51.41442 | -3.39945 | 567 ft | 143 kts | 118° |
| 2026-05-06 15:38 | 51.40985 | -3.38520 | 479 ft | 144 kts | 116° |
| 2026-05-06 15:38 | 51.40384 | -3.36616 | 350 ft | 146 kts | 117° |
| 2026-05-06 15:38 | 51.39930 | -3.35177 | 256 ft | 138 kts | 117° |
| 2026-05-06 15:39 | 51.39548 | -3.33974 | 224 ft | 105 kts | 116° |
| 2026-05-06 15:39 | 51.39329 | -3.33288 | 230 ft | 121 kts | 117° |
| 2026-05-06 15:39 | 51.38875 | -3.31792 | 896 ft | 164 kts | 116° |
| 2026-05-06 15:39 | 51.38331 | -3.30052 | 1920 ft | 183 kts | 116° |
| 2026-05-06 15:40 | 51.37738 | -3.28214 | 1999 ft | 185 kts | 116° |
| 2026-05-06 15:40 | 51.37131 | -3.26401 | 2003 ft | 185 kts | 123° |
| 2026-05-06 15:40 | 51.35766 | -3.24819 | 2024 ft | 189 kts | 162° |
| 2026-05-06 15:40 | 51.34884 | -3.24662 | 2041 ft | 191 kts | 182° |
| 2026-05-06 15:41 | 51.33267 | -3.25725 | 2033 ft | 195 kts | 220° |
| 2026-05-06 15:41 | 51.32691 | -3.26825 | 2033 ft | 196 kts | 239° |
| 2026-05-06 15:41 | 51.32305 | -3.28900 | 2038 ft | 196 kts | 268° |
| 2026-05-06 15:41 | 51.32554 | -3.31014 | 2044 ft | 195 kts | 291° |
| 2026-05-06 15:42 | 51.33103 | -3.32979 | 2073 ft | 194 kts | 297° |
| 2026-05-06 15:42 | 51.33701 | -3.34917 | 2042 ft | 194 kts | 298° |
| 2026-05-06 15:42 | 51.34298 | -3.36855 | 2030 ft | 194 kts | 297° |
| 2026-05-06 15:42 | 51.34890 | -3.38800 | 2056 ft | 195 kts | 297° |
| 2026-05-06 15:43 | 51.35489 | -3.40742 | 2071 ft | 194 kts | 297° |
| 2026-05-06 15:43 | 51.36087 | -3.42651 | 2050 ft | 195 kts | 297° |
| 2026-05-06 15:43 | 51.36698 | -3.44569 | 2033 ft | 189 kts | 298° |
| 2026-05-06 15:43 | 51.37281 | -3.46370 | 1993 ft | 177 kts | 298° |
| 2026-05-06 15:44 | 51.37857 | -3.48082 | 1883 ft | 172 kts | 303° |
| 2026-05-06 15:44 | 51.38609 | -3.49542 | 1831 ft | 169 kts | 319° |
| 2026-05-06 15:44 | 51.39571 | -3.50609 | 1673 ft | 167 kts | 336° |
| 2026-05-06 15:44 | 51.40663 | -3.51175 | 1535 ft | 164 kts | 354° |
| 2026-05-06 15:45 | 51.41794 | -3.51068 | 1390 ft | 164 kts | 17° |
| 2026-05-06 15:45 | 51.42807 | -3.50277 | 1168 ft | 161 kts | 42° |
| 2026-05-06 15:45 | 51.43366 | -3.48820 | 1018 ft | 154 kts | 78° |
| 2026-05-06 15:45 | 51.43308 | -3.47188 | 931 ft | 145 kts | 103° |
| 2026-05-06 15:46 | 51.43060 | -3.45609 | 852 ft | 153 kts | 108° |
| 2026-05-06 15:46 | 51.42703 | -3.43976 | 763 ft | 158 kts | 113° |
| 2026-05-06 15:46 | 51.42261 | -3.42491 | 629 ft | 136 kts | 119° |
| 2026-05-06 15:46 | 51.41836 | -3.41218 | 512 ft | 129 kts | 117° |
| 2026-05-06 15:47 | 51.41429 | -3.39929 | 472 ft | 127 kts | 120° |
| 2026-05-06 15:47 | 51.41032 | -3.38641 | 433 ft | 130 kts | 117° |
| 2026-05-06 15:47 | 51.40614 | -3.37369 | 371 ft | 132 kts | 116° |
| 2026-05-06 15:47 | 51.40195 | -3.36014 | 292 ft | 139 kts | 117° |
| 2026-05-06 15:48 | 51.39770 | -3.34665 | 228 ft | 124 kts | 117° |
| 2026-05-06 15:48 | 51.39440 | -3.33637 | 227 ft | 78 kts | 116° |
| 2026-05-06 15:48 | 51.39314 | -3.33232 | 227 ft | 20 kts | 117° |
| 2026-05-06 15:48 | 51.39310 | -3.33105 | 228 ft | 10 kts | 39° |
| 2026-05-06 15:49 | 51.39362 | -3.33061 | 230 ft | 8 kts | 26° |
| 2026-05-06 15:49 | 51.39407 | -3.33037 | 229 ft | 6 kts | 356° |
| 2026-05-06 15:49 | 51.39443 | -3.33078 | 230 ft | 7 kts | 313° |
| 2026-05-06 15:49 | 51.39469 | -3.33140 | 229 ft | 7 kts | 299° |
| 2026-05-06 15:50 | 51.39492 | -3.33214 | 229 ft | 8 kts | 297° |
| 2026-05-06 15:50 | 51.39519 | -3.33297 | 229 ft | 9 kts | 297° |
| 2026-05-06 15:50 | 51.39549 | -3.33393 | 229 ft | 14 kts | 296° |
| 2026-05-06 15:50 | 51.39598 | -3.33548 | 230 ft | 16 kts | 297° |
| 2026-05-06 15:51 | 51.39661 | -3.33584 | 230 ft | 8 kts | 51° |
| 2026-05-06 15:51 | 51.39691 | -3.33551 | 229 ft | 0 kts | 25° |
| 2026-05-06 15:51 | 51.39690 | -3.33551 | 229 ft | 0 kts | 25° |